TimeEDT,TemperatureF,Dew PointF,Humidity,Sea Level PressureIn,VisibilityMPH,Wind Direction,Wind SpeedMPH,Gust SpeedMPH,PrecipitationIn,Events,Conditions,WindDirDegrees,DateUTC
12:56 AM,63.0,60.1,90,30.17,10.0,NNE,13.8,-,N/A,,Mostly Cloudy,30,2013-10-15 04:56:00
1:56 AM,63.0,60.1,90,30.15,10.0,NNE,15.0,-,N/A,,Mostly Cloudy,20,2013-10-15 05:56:00
2:56 AM,63.0,60.1,90,30.13,10.0,NNE,13.8,-,N/A,,Mostly Cloudy,20,2013-10-15 06:56:00
3:56 AM,63.0,60.1,90,30.12,10.0,NNE,15.0,-,N/A,,Mostly Cloudy,20,2013-10-15 07:56:00
4:56 AM,64.0,61.0,90,30.12,10.0,NNE,13.8,-,N/A,,Overcast,20,2013-10-15 08:56:00
5:56 AM,64.0,61.0,90,30.12,10.0,NNE,11.5,-,N/A,,Overcast,20,2013-10-15 09:56:00
6:40 AM,64.0,61.0,90,30.10,10.0,North,15.0,-,N/A,,Overcast,10,2013-10-15 10:40:00
6:56 AM,64.0,61.0,90,30.11,10.0,North,13.8,-,N/A,,Overcast,10,2013-10-15 10:56:00
7:56 AM,64.0,62.1,93,30.12,8.0,NNE,17.3,23.0,N/A,,Overcast,20,2013-10-15 11:56:00
8:56 AM,64.9,63.0,93,30.13,7.0,North,15.0,24.2,N/A,,Overcast,10,2013-10-15 12:56:00
9:20 AM,64.0,62.1,93,30.12,7.0,NNE,12.7,-,0.00,Rain,Light Rain,20,2013-10-15 13:20:00
9:56 AM,64.9,63.0,93,30.13,5.0,NNE,15.0,-,0.00,,Overcast,20,2013-10-15 13:56:00
10:56 AM,66.9,64.0,90,30.12,5.0,NNE,16.1,-,N/A,,Overcast,20,2013-10-15 14:56:00
11:56 AM,68.0,64.0,87,30.11,5.0,NE,17.3,24.2,N/A,,Overcast,40,2013-10-15 15:56:00
12:56 PM,69.1,64.9,87,30.09,6.0,NNE,16.1,-,N/A,,Overcast,20,2013-10-15 16:56:00
1:56 PM,68.0,64.0,87,30.08,5.0,NNE,16.1,-,N/A,,Overcast,20,2013-10-15 17:56:00
2:56 PM,66.9,63.0,87,30.07,6.0,NNE,19.6,24.2,N/A,,Overcast,20,2013-10-15 18:56:00
3:32 PM,66.9,63.0,87,30.05,6.0,NNE,18.4,-,N/A,,Overcast,20,2013-10-15 19:32:00
3:56 PM,66.9,63.0,87,30.06,6.0,NNE,17.3,26.5,N/A,,Overcast,30,2013-10-15 19:56:00
4:56 PM,68.0,63.0,84,30.07,6.0,NE,17.3,-,N/A,,Overcast,40,2013-10-15 20:56:00
5:56 PM,66.9,63.0,87,30.07,6.0,NNE,19.6,-,N/A,,Overcast,30,2013-10-15 21:56:00
6:56 PM,66.0,63.0,90,30.06,6.0,NNE,15.0,-,N/A,,Overcast,30,2013-10-15 22:56:00
7:56 PM,66.9,64.0,90,30.06,6.0,NNE,15.0,-,N/A,,Overcast,30,2013-10-15 23:56:00
8:14 PM,66.9,64.0,90,30.06,6.0,NNE,16.1,-,N/A,,Overcast,20,2013-10-16 00:14:00
8:56 PM,66.0,64.0,93,30.06,6.0,NE,13.8,-,N/A,,Overcast,40,2013-10-16 00:56:00
9:56 PM,66.9,64.9,93,30.06,6.0,NE,12.7,-,N/A,,Overcast,40,2013-10-16 01:56:00
10:56 PM,66.9,64.9,93,30.06,6.0,NE,11.5,-,N/A,,Overcast,40,2013-10-16 02:56:00
11:56 PM,66.9,64.9,93,30.04,6.0,NNE,10.4,-,N/A,,Overcast,30,2013-10-16 03:56:00